sensor_id;sensor_type;location;lat;lon;timestamp;temperature;humidity
51007;DHT22;37034;47.886;-3.904;2022-10-31T00:03:43;18.10;94.40
51007;DHT22;37034;47.886;-3.904;2022-10-31T00:06:09;18.10;94.40
51007;DHT22;37034;47.886;-3.904;2022-10-31T00:08:35;18.10;94.50
51007;DHT22;37034;47.886;-3.904;2022-10-31T00:11:00;18.20;94.50
51007;DHT22;37034;47.886;-3.904;2022-10-31T00:13:26;18.20;94.50
51007;DHT22;37034;47.886;-3.904;2022-10-31T00:15:52;18.20;94.50
51007;DHT22;37034;47.886;-3.904;2022-10-31T00:18:20;18.20;94.40
51007;DHT22;37034;47.886;-3.904;2022-10-31T00:20:46;18.20;94.40
51007;DHT22;37034;47.886;-3.904;2022-10-31T00:23:12;18.10;94.30
51007;DHT22;37034;47.886;-3.904;2022-10-31T00:25:38;18.10;94.40
51007;DHT22;37034;47.886;-3.904;2022-10-31T00:28:06;18.10;94.40
51007;DHT22;37034;47.886;-3.904;2022-10-31T00:30:32;18.10;94.40
51007;DHT22;37034;47.886;-3.904;2022-10-31T00:32:58;18.10;94.40
51007;DHT22;37034;47.886;-3.904;2022-10-31T00:35:24;18.20;94.40
51007;DHT22;37034;47.886;-3.904;2022-10-31T00:37:50;18.10;94.20
51007;DHT22;37034;47.886;-3.904;2022-10-31T00:40:16;18.10;94.30
51007;DHT22;37034;47.886;-3.904;2022-10-31T00:42:41;18.10;94.30
51007;DHT22;37034;47.886;-3.904;2022-10-31T00:45:10;18.10;94.30
51007;DHT22;37034;47.886;-3.904;2022-10-31T00:47:37;18.00;94.30
51007;DHT22;37034;47.886;-3.904;2022-10-31T00:50:04;18.10;94.30
51007;DHT22;37034;47.886;-3.904;2022-10-31T00:52:30;18.00;94.20
51007;DHT22;37034;47.886;-3.904;2022-10-31T00:54:56;18.00;94.30
51007;DHT22;37034;47.886;-3.904;2022-10-31T00:57:22;18.00;94.30
51007;DHT22;37034;47.886;-3.904;2022-10-31T00:59:47;18.00;94.30
51007;DHT22;37034;47.886;-3.904;2022-10-31T01:02:13;18.00;94.30
51007;DHT22;37034;47.886;-3.904;2022-10-31T01:04:39;18.00;94.30
51007;DHT22;37034;47.886;-3.904;2022-10-31T01:07:04;18.00;94.30
51007;DHT22;37034;47.886;-3.904;2022-10-31T01:09:30;18.00;94.30
51007;DHT22;37034;47.886;-3.904;2022-10-31T01:11:56;18.00;94.20
51007;DHT22;37034;47.886;-3.904;2022-10-31T01:14:24;17.90;94.30
51007;DHT22;37034;47.886;-3.904;2022-10-31T01:16:50;17.90;94.20
51007;DHT22;37034;47.886;-3.904;2022-10-31T01:19:16;18.00;94.20
51007;DHT22;37034;47.886;-3.904;2022-10-31T01:21:48;18.00;94.20
51007;DHT22;37034;47.886;-3.904;2022-10-31T01:24:14;17.90;94.20
51007;DHT22;37034;47.886;-3.904;2022-10-31T01:26:39;17.90;94.20
51007;DHT22;37034;47.886;-3.904;2022-10-31T01:29:07;17.90;94.30
51007;DHT22;37034;47.886;-3.904;2022-10-31T01:31:38;17.90;94.30
51007;DHT22;37034;47.886;-3.904;2022-10-31T01:34:04;17.90;94.20
51007;DHT22;37034;47.886;-3.904;2022-10-31T01:36:32;17.90;94.10
51007;DHT22;37034;47.886;-3.904;2022-10-31T01:39:01;17.80;94.10
51007;DHT22;37034;47.886;-3.904;2022-10-31T01:41:30;17.80;94.40
51007;DHT22;37034;47.886;-3.904;2022-10-31T01:44:01;17.80;94.20
51007;DHT22;37034;47.886;-3.904;2022-10-31T01:46:51;17.80;94.20
51007;DHT22;37034;47.886;-3.904;2022-10-31T01:49:43;17.80;94.10
51007;DHT22;37034;47.886;-3.904;2022-10-31T01:55:01;17.70;94.00
51007;DHT22;37034;47.886;-3.904;2022-10-31T01:57:29;17.70;94.00
51007;DHT22;37034;47.886;-3.904;2022-10-31T02:00:00;17.70;94.00
51007;DHT22;37034;47.886;-3.904;2022-10-31T02:02:29;17.70;94.00
51007;DHT22;37034;47.886;-3.904;2022-10-31T02:04:56;17.70;94.00
51007;DHT22;37034;47.886;-3.904;2022-10-31T02:07:38;17.70;94.10
51007;DHT22;37034;47.886;-3.904;2022-10-31T02:10:05;17.70;94.10
51007;DHT22;37034;47.886;-3.904;2022-10-31T02:12:31;17.70;94.10
51007;DHT22;37034;47.886;-3.904;2022-10-31T02:14:59;17.70;94.10
51007;DHT22;37034;47.886;-3.904;2022-10-31T02:17:25;17.70;94.10
51007;DHT22;37034;47.886;-3.904;2022-10-31T02:20:16;17.70;94.10
51007;DHT22;37034;47.886;-3.904;2022-10-31T02:22:52;17.70;94.20
51007;DHT22;37034;47.886;-3.904;2022-10-31T02:36:01;17.60;94.10
51007;DHT22;37034;47.886;-3.904;2022-10-31T02:38:41;17.60;94.20
51007;DHT22;37034;47.886;-3.904;2022-10-31T02:51:48;17.70;94.20
51007;DHT22;37034;47.886;-3.904;2022-10-31T02:54:23;17.70;94.20
51007;DHT22;37034;47.886;-3.904;2022-10-31T02:56:57;17.70;94.20
51007;DHT22;37034;47.886;-3.904;2022-10-31T02:59:25;17.70;94.20
51007;DHT22;37034;47.886;-3.904;2022-10-31T03:02:04;17.70;94.10
51007;DHT22;37034;47.886;-3.904;2022-10-31T03:04:49;17.60;94.10
51007;DHT22;37034;47.886;-3.904;2022-10-31T03:07:25;17.60;94.10
51007;DHT22;37034;47.886;-3.904;2022-10-31T03:14:54;17.60;93.90
51007;DHT22;37034;47.886;-3.904;2022-10-31T03:17:39;17.60;93.90
51007;DHT22;37034;47.886;-3.904;2022-10-31T03:20:10;17.60;93.80
51007;DHT22;37034;47.886;-3.904;2022-10-31T03:22:38;17.60;93.80
51007;DHT22;37034;47.886;-3.904;2022-10-31T03:25:06;17.60;93.70
51007;DHT22;37034;47.886;-3.904;2022-10-31T03:27:35;17.50;93.80
51007;DHT22;37034;47.886;-3.904;2022-10-31T03:30:04;17.50;93.70
51007;DHT22;37034;47.886;-3.904;2022-10-31T03:32:38;17.50;93.70
51007;DHT22;37034;47.886;-3.904;2022-10-31T03:35:06;17.50;93.80
51007;DHT22;37034;47.886;-3.904;2022-10-31T03:37:35;17.50;93.80
51007;DHT22;37034;47.886;-3.904;2022-10-31T03:40:03;17.40;93.70
51007;DHT22;37034;47.886;-3.904;2022-10-31T03:42:32;17.40;93.70
51007;DHT22;37034;47.886;-3.904;2022-10-31T03:45:15;17.40;93.70
51007;DHT22;37034;47.886;-3.904;2022-10-31T03:47:43;17.40;93.60
51007;DHT22;37034;47.886;-3.904;2022-10-31T03:50:10;17.40;93.30
51007;DHT22;37034;47.886;-3.904;2022-10-31T03:55:33;17.30;93.40
51007;DHT22;37034;47.886;-3.904;2022-10-31T03:58:08;17.20;93.60
51007;DHT22;37034;47.886;-3.904;2022-10-31T04:00:39;17.20;93.60
51007;DHT22;37034;47.886;-3.904;2022-10-31T04:03:11;17.20;93.50
51007;DHT22;37034;47.886;-3.904;2022-10-31T04:05:38;17.20;93.50
51007;DHT22;37034;47.886;-3.904;2022-10-31T04:08:07;17.20;93.40
51007;DHT22;37034;47.886;-3.904;2022-10-31T04:10:35;17.10;93.40
51007;DHT22;37034;47.886;-3.904;2022-10-31T04:13:08;17.10;93.40
51007;DHT22;37034;47.886;-3.904;2022-10-31T04:15:35;17.10;93.40
51007;DHT22;37034;47.886;-3.904;2022-10-31T04:18:04;17.10;93.40
51007;DHT22;37034;47.886;-3.904;2022-10-31T04:20:36;17.00;93.50
51007;DHT22;37034;47.886;-3.904;2022-10-31T04:23:04;17.00;93.60
51007;DHT22;37034;47.886;-3.904;2022-10-31T04:25:29;17.10;93.60
51007;DHT22;37034;47.886;-3.904;2022-10-31T04:27:55;17.10;93.60
51007;DHT22;37034;47.886;-3.904;2022-10-31T04:30:21;17.10;93.60
51007;DHT22;37034;47.886;-3.904;2022-10-31T04:32:47;17.10;93.60
51007;DHT22;37034;47.886;-3.904;2022-10-31T04:35:12;17.10;93.60
51007;DHT22;37034;47.886;-3.904;2022-10-31T04:37:38;17.10;93.50
51007;DHT22;37034;47.886;-3.904;2022-10-31T04:40:04;17.10;93.50
51007;DHT22;37034;47.886;-3.904;2022-10-31T04:42:30;17.10;93.60
51007;DHT22;37034;47.886;-3.904;2022-10-31T04:44:56;17.10;93.60
51007;DHT22;37034;47.886;-3.904;2022-10-31T04:47:21;17.10;93.50
51007;DHT22;37034;47.886;-3.904;2022-10-31T04:49:47;17.10;93.70
51007;DHT22;37034;47.886;-3.904;2022-10-31T04:52:13;17.10;93.50
51007;DHT22;37034;47.886;-3.904;2022-10-31T04:54:38;17.10;93.50
51007;DHT22;37034;47.886;-3.904;2022-10-31T04:57:04;17.00;93.50
51007;DHT22;37034;47.886;-3.904;2022-10-31T04:59:30;17.00;93.40
51007;DHT22;37034;47.886;-3.904;2022-10-31T05:01:55;17.00;93.30
51007;DHT22;37034;47.886;-3.904;2022-10-31T05:04:21;17.00;93.40
51007;DHT22;37034;47.886;-3.904;2022-10-31T05:06:47;16.90;93.40
51007;DHT22;37034;47.886;-3.904;2022-10-31T05:09:13;16.90;93.40
51007;DHT22;37034;47.886;-3.904;2022-10-31T05:11:38;16.90;93.40
51007;DHT22;37034;47.886;-3.904;2022-10-31T05:14:04;16.90;93.50
51007;DHT22;37034;47.886;-3.904;2022-10-31T05:16:29;16.90;93.60
51007;DHT22;37034;47.886;-3.904;2022-10-31T05:18:55;16.90;93.60
51007;DHT22;37034;47.886;-3.904;2022-10-31T05:21:21;16.90;93.50
51007;DHT22;37034;47.886;-3.904;2022-10-31T05:23:47;16.80;93.50
51007;DHT22;37034;47.886;-3.904;2022-10-31T05:26:12;16.80;93.50
51007;DHT22;37034;47.886;-3.904;2022-10-31T05:28:38;16.80;93.50
51007;DHT22;37034;47.886;-3.904;2022-10-31T05:31:04;16.80;93.60
51007;DHT22;37034;47.886;-3.904;2022-10-31T05:33:29;16.80;93.60
51007;DHT22;37034;47.886;-3.904;2022-10-31T05:35:55;16.80;93.60
51007;DHT22;37034;47.886;-3.904;2022-10-31T05:38:21;16.80;93.60
51007;DHT22;37034;47.886;-3.904;2022-10-31T05:40:47;16.80;93.70
51007;DHT22;37034;47.886;-3.904;2022-10-31T05:43:12;16.80;93.70
51007;DHT22;37034;47.886;-3.904;2022-10-31T05:45:38;16.80;93.70
51007;DHT22;37034;47.886;-3.904;2022-10-31T05:48:04;16.80;93.70
51007;DHT22;37034;47.886;-3.904;2022-10-31T05:50:30;16.80;93.80
51007;DHT22;37034;47.886;-3.904;2022-10-31T05:52:57;16.80;93.80
51007;DHT22;37034;47.886;-3.904;2022-10-31T05:55:23;16.90;94.00
51007;DHT22;37034;47.886;-3.904;2022-10-31T05:57:48;16.90;93.80
51007;DHT22;37034;47.886;-3.904;2022-10-31T06:00:14;16.90;93.80
51007;DHT22;37034;47.886;-3.904;2022-10-31T06:02:40;16.90;93.80
51007;DHT22;37034;47.886;-3.904;2022-10-31T06:05:06;16.80;93.90
51007;DHT22;37034;47.886;-3.904;2022-10-31T06:07:35;16.80;93.90
51007;DHT22;37034;47.886;-3.904;2022-10-31T06:10:02;16.80;93.90
51007;DHT22;37034;47.886;-3.904;2022-10-31T06:12:28;16.80;94.00
51007;DHT22;37034;47.886;-3.904;2022-10-31T06:14:54;16.80;94.00
51007;DHT22;37034;47.886;-3.904;2022-10-31T06:17:20;16.80;94.30
51007;DHT22;37034;47.886;-3.904;2022-10-31T06:19:46;16.80;94.10
51007;DHT22;37034;47.886;-3.904;2022-10-31T06:22:11;16.80;94.00
51007;DHT22;37034;47.886;-3.904;2022-10-31T06:24:38;16.90;94.00
51007;DHT22;37034;47.886;-3.904;2022-10-31T06:27:04;16.80;94.00
51007;DHT22;37034;47.886;-3.904;2022-10-31T06:29:30;16.80;93.90
51007;DHT22;37034;47.886;-3.904;2022-10-31T06:31:56;16.80;94.20
51007;DHT22;37034;47.886;-3.904;2022-10-31T06:34:22;16.80;93.90
51007;DHT22;37034;47.886;-3.904;2022-10-31T06:36:47;16.80;93.90
51007;DHT22;37034;47.886;-3.904;2022-10-31T06:39:13;16.70;93.90
51007;DHT22;37034;47.886;-3.904;2022-10-31T06:41:39;16.70;94.00
51007;DHT22;37034;47.886;-3.904;2022-10-31T06:44:06;16.60;94.10
51007;DHT22;37034;47.886;-3.904;2022-10-31T06:46:32;16.60;94.10
51007;DHT22;37034;47.886;-3.904;2022-10-31T06:48:58;16.60;94.20
51007;DHT22;37034;47.886;-3.904;2022-10-31T06:51:24;16.60;94.40
51007;DHT22;37034;47.886;-3.904;2022-10-31T06:53:49;16.60;94.40
51007;DHT22;37034;47.886;-3.904;2022-10-31T06:56:15;16.60;94.50
51007;DHT22;37034;47.886;-3.904;2022-10-31T06:58:40;16.60;94.60
51007;DHT22;37034;47.886;-3.904;2022-10-31T07:01:06;16.60;94.60
51007;DHT22;37034;47.886;-3.904;2022-10-31T07:03:32;16.60;94.70
51007;DHT22;37034;47.886;-3.904;2022-10-31T07:05:57;16.60;94.80
51007;DHT22;37034;47.886;-3.904;2022-10-31T07:08:24;16.70;94.90
51007;DHT22;37034;47.886;-3.904;2022-10-31T07:10:54;16.70;94.80
51007;DHT22;37034;47.886;-3.904;2022-10-31T07:13:21;16.70;94.90
51007;DHT22;37034;47.886;-3.904;2022-10-31T07:15:53;16.80;95.00
51007;DHT22;37034;47.886;-3.904;2022-10-31T07:18:19;16.80;95.00
51007;DHT22;37034;47.886;-3.904;2022-10-31T07:20:45;16.80;95.10
51007;DHT22;37034;47.886;-3.904;2022-10-31T07:23:11;16.80;95.30
51007;DHT22;37034;47.886;-3.904;2022-10-31T07:25:38;16.90;95.30
51007;DHT22;37034;47.886;-3.904;2022-10-31T07:28:04;16.90;95.40
51007;DHT22;37034;47.886;-3.904;2022-10-31T07:30:29;16.90;95.40
51007;DHT22;37034;47.886;-3.904;2022-10-31T07:32:55;16.90;95.50
51007;DHT22;37034;47.886;-3.904;2022-10-31T07:35:23;16.90;95.60
51007;DHT22;37034;47.886;-3.904;2022-10-31T07:37:49;17.00;95.70
51007;DHT22;37034;47.886;-3.904;2022-10-31T07:40:16;17.00;95.60
51007;DHT22;37034;47.886;-3.904;2022-10-31T07:42:49;17.10;95.70
51007;DHT22;37034;47.886;-3.904;2022-10-31T07:45:19;17.10;95.70
51007;DHT22;37034;47.886;-3.904;2022-10-31T07:47:49;17.10;95.60
51007;DHT22;37034;47.886;-3.904;2022-10-31T07:50:17;17.20;95.70
51007;DHT22;37034;47.886;-3.904;2022-10-31T07:52:44;17.20;95.70
51007;DHT22;37034;47.886;-3.904;2022-10-31T07:55:10;17.30;95.80
51007;DHT22;37034;47.886;-3.904;2022-10-31T07:57:39;17.30;95.70
51007;DHT22;37034;47.886;-3.904;2022-10-31T08:00:07;17.30;95.70
51007;DHT22;37034;47.886;-3.904;2022-10-31T08:02:33;17.40;95.70
51007;DHT22;37034;47.886;-3.904;2022-10-31T08:04:59;17.50;95.80
51007;DHT22;37034;47.886;-3.904;2022-10-31T08:07:26;17.40;95.70
51007;DHT22;37034;47.886;-3.904;2022-10-31T08:09:52;17.50;95.70
51007;DHT22;37034;47.886;-3.904;2022-10-31T08:12:18;17.50;95.60
51007;DHT22;37034;47.886;-3.904;2022-10-31T08:14:48;17.40;95.60
51007;DHT22;37034;47.886;-3.904;2022-10-31T08:17:21;17.60;95.60
51007;DHT22;37034;47.886;-3.904;2022-10-31T08:19:49;17.70;95.70
51007;DHT22;37034;47.886;-3.904;2022-10-31T08:22:15;17.60;95.60
51007;DHT22;37034;47.886;-3.904;2022-10-31T08:24:40;17.60;95.60
51007;DHT22;37034;47.886;-3.904;2022-10-31T08:27:06;17.60;95.50
51007;DHT22;37034;47.886;-3.904;2022-10-31T08:29:32;17.60;95.40
51007;DHT22;37034;47.886;-3.904;2022-10-31T08:31:58;17.60;95.40
51007;DHT22;37034;47.886;-3.904;2022-10-31T08:34:24;17.60;95.40
51007;DHT22;37034;47.886;-3.904;2022-10-31T08:36:51;17.70;95.30
51007;DHT22;37034;47.886;-3.904;2022-10-31T08:39:17;17.70;95.50
51007;DHT22;37034;47.886;-3.904;2022-10-31T08:41:43;17.80;95.40
51007;DHT22;37034;47.886;-3.904;2022-10-31T08:44:08;17.80;95.30
51007;DHT22;37034;47.886;-3.904;2022-10-31T08:46:34;17.80;95.10
51007;DHT22;37034;47.886;-3.904;2022-10-31T08:49:01;17.90;94.90
51007;DHT22;37034;47.886;-3.904;2022-10-31T08:51:27;17.90;95.00
51007;DHT22;37034;47.886;-3.904;2022-10-31T08:53:52;17.80;94.90
51007;DHT22;37034;47.886;-3.904;2022-10-31T08:56:18;17.90;94.90
51007;DHT22;37034;47.886;-3.904;2022-10-31T08:58:44;17.90;94.60
51007;DHT22;37034;47.886;-3.904;2022-10-31T09:01:44;17.90;94.40
51007;DHT22;37034;47.886;-3.904;2022-10-31T09:04:10;17.80;94.40
51007;DHT22;37034;47.886;-3.904;2022-10-31T09:06:35;17.80;94.40
51007;DHT22;37034;47.886;-3.904;2022-10-31T09:09:01;17.80;94.40
51007;DHT22;37034;47.886;-3.904;2022-10-31T09:11:27;17.80;94.40
51007;DHT22;37034;47.886;-3.904;2022-10-31T09:13:55;17.80;94.50
51007;DHT22;37034;47.886;-3.904;2022-10-31T09:16:21;17.70;94.20
51007;DHT22;37034;47.886;-3.904;2022-10-31T09:18:46;17.70;94.30
51007;DHT22;37034;47.886;-3.904;2022-10-31T09:21:12;17.80;94.10
51007;DHT22;37034;47.886;-3.904;2022-10-31T09:23:38;17.80;94.40
51007;DHT22;37034;47.886;-3.904;2022-10-31T09:26:04;17.90;94.50
51007;DHT22;37034;47.886;-3.904;2022-10-31T09:28:30;17.90;94.30
51007;DHT22;37034;47.886;-3.904;2022-10-31T09:31:00;18.00;94.20
51007;DHT22;37034;47.886;-3.904;2022-10-31T09:33:25;18.10;94.40
51007;DHT22;37034;47.886;-3.904;2022-10-31T09:35:51;18.10;94.30
51007;DHT22;37034;47.886;-3.904;2022-10-31T09:38:20;18.20;94.20
51007;DHT22;37034;47.886;-3.904;2022-10-31T09:40:56;18.20;93.80
51007;DHT22;37034;47.886;-3.904;2022-10-31T09:51:58;18.50;93.80
51007;DHT22;37034;47.886;-3.904;2022-10-31T09:54:46;18.60;94.10
51007;DHT22;37034;47.886;-3.904;2022-10-31T09:57:14;18.70;94.10
51007;DHT22;37034;47.886;-3.904;2022-10-31T09:59:42;18.80;93.50
51007;DHT22;37034;47.886;-3.904;2022-10-31T10:02:25;18.80;93.40
51007;DHT22;37034;47.886;-3.904;2022-10-31T10:04:59;18.80;93.10
51007;DHT22;37034;47.886;-3.904;2022-10-31T10:07:53;18.80;92.90
51007;DHT22;37034;47.886;-3.904;2022-10-31T10:16:09;18.70;93.20
51007;DHT22;37034;47.886;-3.904;2022-10-31T10:21:22;18.80;93.20
51007;DHT22;37034;47.886;-3.904;2022-10-31T10:27:21;19.00;92.60
51007;DHT22;37034;47.886;-3.904;2022-10-31T10:32:24;18.90;92.50
51007;DHT22;37034;47.886;-3.904;2022-10-31T10:34:54;18.90;92.80
51007;DHT22;37034;47.886;-3.904;2022-10-31T10:37:32;18.80;92.70
51007;DHT22;37034;47.886;-3.904;2022-10-31T10:40:16;18.80;92.70
51007;DHT22;37034;47.886;-3.904;2022-10-31T10:49:11;18.90;92.90
51007;DHT22;37034;47.886;-3.904;2022-10-31T10:59:40;19.00;93.10
51007;DHT22;37034;47.886;-3.904;2022-10-31T11:02:18;19.00;93.60
51007;DHT22;37034;47.886;-3.904;2022-10-31T11:04:47;19.00;93.60
51007;DHT22;37034;47.886;-3.904;2022-10-31T11:07:13;19.10;93.60
51007;DHT22;37034;47.886;-3.904;2022-10-31T11:09:39;19.20;93.50
51007;DHT22;37034;47.886;-3.904;2022-10-31T11:12:10;19.20;93.20
51007;DHT22;37034;47.886;-3.904;2022-10-31T11:14:50;19.20;93.40
51007;DHT22;37034;47.886;-3.904;2022-10-31T11:22:31;19.20;93.50
51007;DHT22;37034;47.886;-3.904;2022-10-31T11:24:57;19.20;93.40
51007;DHT22;37034;47.886;-3.904;2022-10-31T11:27:24;19.30;93.70
51007;DHT22;37034;47.886;-3.904;2022-10-31T11:29:51;19.40;93.90
51007;DHT22;37034;47.886;-3.904;2022-10-31T11:32:25;19.30;93.40
51007;DHT22;37034;47.886;-3.904;2022-10-31T11:34:54;19.30;93.50
51007;DHT22;37034;47.886;-3.904;2022-10-31T11:37:25;19.30;93.40
51007;DHT22;37034;47.886;-3.904;2022-10-31T11:39:59;19.30;93.50
51007;DHT22;37034;47.886;-3.904;2022-10-31T11:42:40;19.30;93.50
51007;DHT22;37034;47.886;-3.904;2022-10-31T11:47:50;19.40;93.50
51007;DHT22;37034;47.886;-3.904;2022-10-31T11:50:25;19.40;93.40
51007;DHT22;37034;47.886;-3.904;2022-10-31T11:52:53;19.30;93.50
51007;DHT22;37034;47.886;-3.904;2022-10-31T11:55:34;19.30;93.60
51007;DHT22;37034;47.886;-3.904;2022-10-31T11:58:01;19.20;93.90
51007;DHT22;37034;47.886;-3.904;2022-10-31T12:00:38;19.20;94.00
51007;DHT22;37034;47.886;-3.904;2022-10-31T12:08:17;19.20;94.30
51007;DHT22;37034;47.886;-3.904;2022-10-31T12:16:34;19.10;94.80
51007;DHT22;37034;47.886;-3.904;2022-10-31T12:19:12;19.20;94.70
51007;DHT22;37034;47.886;-3.904;2022-10-31T12:21:57;19.20;94.70
51007;DHT22;37034;47.886;-3.904;2022-10-31T12:24:40;19.10;94.80
51007;DHT22;37034;47.886;-3.904;2022-10-31T12:29:57;19.10;95.10
51007;DHT22;37034;47.886;-3.904;2022-10-31T12:32:46;19.10;95.30
51007;DHT22;37034;47.886;-3.904;2022-10-31T12:43:46;19.10;96.20
51007;DHT22;37034;47.886;-3.904;2022-10-31T12:51:44;19.50;96.10
51007;DHT22;37034;47.886;-3.904;2022-10-31T12:54:24;19.50;96.00
51007;DHT22;37034;47.886;-3.904;2022-10-31T13:00:11;19.50;96.30
51007;DHT22;37034;47.886;-3.904;2022-10-31T13:05:43;19.50;96.30
51007;DHT22;37034;47.886;-3.904;2022-10-31T13:10:51;19.40;96.30
51007;DHT22;37034;47.886;-3.904;2022-10-31T13:13:25;19.50;96.50
51007;DHT22;37034;47.886;-3.904;2022-10-31T13:19:03;19.50;96.40
51007;DHT22;37034;47.886;-3.904;2022-10-31T13:21:35;19.40;96.70
51007;DHT22;37034;47.886;-3.904;2022-10-31T13:24:04;19.40;96.80
51007;DHT22;37034;47.886;-3.904;2022-10-31T13:26:48;19.30;96.80
51007;DHT22;37034;47.886;-3.904;2022-10-31T13:29:28;19.40;97.10
51007;DHT22;37034;47.886;-3.904;2022-10-31T13:31:54;19.40;96.70
51007;DHT22;37034;47.886;-3.904;2022-10-31T13:45:19;19.40;97.00
51007;DHT22;37034;47.886;-3.904;2022-10-31T13:50:39;19.60;96.70
51007;DHT22;37034;47.886;-3.904;2022-10-31T13:55:46;19.60;96.40
51007;DHT22;37034;47.886;-3.904;2022-10-31T14:01:20;19.50;96.50
51007;DHT22;37034;47.886;-3.904;2022-10-31T14:06:38;19.50;96.70
51007;DHT22;37034;47.886;-3.904;2022-10-31T14:09:17;19.40;96.60
51007;DHT22;37034;47.886;-3.904;2022-10-31T14:11:46;19.40;96.80
51007;DHT22;37034;47.886;-3.904;2022-10-31T14:14:13;19.40;96.60
51007;DHT22;37034;47.886;-3.904;2022-10-31T14:16:39;19.40;96.60
51007;DHT22;37034;47.886;-3.904;2022-10-31T14:19:15;19.50;96.70
51007;DHT22;37034;47.886;-3.904;2022-10-31T14:21:43;19.50;96.50
51007;DHT22;37034;47.886;-3.904;2022-10-31T14:24:32;19.40;96.30
51007;DHT22;37034;47.886;-3.904;2022-10-31T14:27:01;19.40;96.50
51007;DHT22;37034;47.886;-3.904;2022-10-31T14:29:33;19.50;96.40
51007;DHT22;37034;47.886;-3.904;2022-10-31T14:34:41;19.40;96.10
51007;DHT22;37034;47.886;-3.904;2022-10-31T14:37:56;19.40;96.00
51007;DHT22;37034;47.886;-3.904;2022-10-31T14:48:33;18.70;96.20
51007;DHT22;37034;47.886;-3.904;2022-10-31T14:51:08;18.40;96.20
51007;DHT22;37034;47.886;-3.904;2022-10-31T14:53:50;18.10;96.10
51007;DHT22;37034;47.886;-3.904;2022-10-31T14:56:23;18.00;96.20
51007;DHT22;37034;47.886;-3.904;2022-10-31T14:58:50;17.80;96.40
51007;DHT22;37034;47.886;-3.904;2022-10-31T15:01:22;17.80;96.50
51007;DHT22;37034;47.886;-3.904;2022-10-31T15:03:49;17.80;96.60
51007;DHT22;37034;47.886;-3.904;2022-10-31T15:06:17;17.70;96.70
51007;DHT22;37034;47.886;-3.904;2022-10-31T15:08:51;17.70;96.70
51007;DHT22;37034;47.886;-3.904;2022-10-31T15:11:26;17.60;97.00
51007;DHT22;37034;47.886;-3.904;2022-10-31T15:13:54;17.50;97.00
51007;DHT22;37034;47.886;-3.904;2022-10-31T15:16:34;17.50;97.20
51007;DHT22;37034;47.886;-3.904;2022-10-31T15:19:23;17.60;97.40
51007;DHT22;37034;47.886;-3.904;2022-10-31T15:21:51;17.50;97.60
51007;DHT22;37034;47.886;-3.904;2022-10-31T15:24:18;17.60;97.30
51007;DHT22;37034;47.886;-3.904;2022-10-31T15:26:52;17.50;97.40
51007;DHT22;37034;47.886;-3.904;2022-10-31T15:29:20;17.60;97.50
51007;DHT22;37034;47.886;-3.904;2022-10-31T15:31:57;17.60;97.40
51007;DHT22;37034;47.886;-3.904;2022-10-31T15:34:39;17.60;97.50
51007;DHT22;37034;47.886;-3.904;2022-10-31T15:37:26;17.60;97.60
51007;DHT22;37034;47.886;-3.904;2022-10-31T15:39:52;17.60;97.60
51007;DHT22;37034;47.886;-3.904;2022-10-31T15:42:28;17.70;97.60
51007;DHT22;37034;47.886;-3.904;2022-10-31T15:45:02;17.80;97.50
51007;DHT22;37034;47.886;-3.904;2022-10-31T15:47:30;17.80;97.50
51007;DHT22;37034;47.886;-3.904;2022-10-31T15:49:57;17.80;97.50
51007;DHT22;37034;47.886;-3.904;2022-10-31T15:52:39;17.80;97.60
51007;DHT22;37034;47.886;-3.904;2022-10-31T15:55:24;17.90;97.60
51007;DHT22;37034;47.886;-3.904;2022-10-31T15:57:57;17.90;97.60
51007;DHT22;37034;47.886;-3.904;2022-10-31T16:00:27;18.00;97.50
51007;DHT22;37034;47.886;-3.904;2022-10-31T16:05:52;18.00;97.60
51007;DHT22;37034;47.886;-3.904;2022-10-31T16:16:20;18.10;97.70
51007;DHT22;37034;47.886;-3.904;2022-10-31T16:18:47;18.00;97.80
51007;DHT22;37034;47.886;-3.904;2022-10-31T16:21:13;18.00;97.80
51007;DHT22;37034;47.886;-3.904;2022-10-31T16:23:44;18.00;97.90
51007;DHT22;37034;47.886;-3.904;2022-10-31T16:26:16;18.00;98.00
51007;DHT22;37034;47.886;-3.904;2022-10-31T16:28:53;18.10;97.90
51007;DHT22;37034;47.886;-3.904;2022-10-31T16:31:27;18.00;98.00
51007;DHT22;37034;47.886;-3.904;2022-10-31T16:34:09;17.80;97.80
51007;DHT22;37034;47.886;-3.904;2022-10-31T16:36:36;17.70;97.80
51007;DHT22;37034;47.886;-3.904;2022-10-31T16:39:05;17.60;97.60
51007;DHT22;37034;47.886;-3.904;2022-10-31T16:41:32;17.50;97.60
51007;DHT22;37034;47.886;-3.904;2022-10-31T16:44:00;17.40;97.50
51007;DHT22;37034;47.886;-3.904;2022-10-31T16:46:27;17.30;96.80
51007;DHT22;37034;47.886;-3.904;2022-10-31T16:48:54;17.10;96.80
51007;DHT22;37034;47.886;-3.904;2022-10-31T16:51:20;17.10;96.70
51007;DHT22;37034;47.886;-3.904;2022-10-31T16:53:45;17.10;96.70
51007;DHT22;37034;47.886;-3.904;2022-10-31T16:56:17;17.10;96.70
51007;DHT22;37034;47.886;-3.904;2022-10-31T16:58:43;17.10;96.70
51007;DHT22;37034;47.886;-3.904;2022-10-31T17:01:11;17.10;96.70
51007;DHT22;37034;47.886;-3.904;2022-10-31T17:03:38;17.10;96.60
51007;DHT22;37034;47.886;-3.904;2022-10-31T17:06:12;17.10;96.40
51007;DHT22;37034;47.886;-3.904;2022-10-31T17:08:37;17.10;96.30
51007;DHT22;37034;47.886;-3.904;2022-10-31T17:11:04;17.10;96.30
51007;DHT22;37034;47.886;-3.904;2022-10-31T17:13:31;17.00;96.20
51007;DHT22;37034;47.886;-3.904;2022-10-31T17:16:02;17.10;96.50
51007;DHT22;37034;47.886;-3.904;2022-10-31T17:18:29;17.10;96.40
51007;DHT22;37034;47.886;-3.904;2022-10-31T17:21:00;16.90;96.10
51007;DHT22;37034;47.886;-3.904;2022-10-31T17:23:27;17.00;96.00
51007;DHT22;37034;47.886;-3.904;2022-10-31T17:25:54;17.00;96.10
51007;DHT22;37034;47.886;-3.904;2022-10-31T17:28:20;17.00;96.10
51007;DHT22;37034;47.886;-3.904;2022-10-31T17:30:46;16.80;96.00
51007;DHT22;37034;47.886;-3.904;2022-10-31T17:33:13;16.80;96.30
51007;DHT22;37034;47.886;-3.904;2022-10-31T17:35:41;16.80;96.20
51007;DHT22;37034;47.886;-3.904;2022-10-31T17:38:06;17.00;96.20
51007;DHT22;37034;47.886;-3.904;2022-10-31T17:40:32;17.00;95.90
51007;DHT22;37034;47.886;-3.904;2022-10-31T17:42:58;17.10;95.70
51007;DHT22;37034;47.886;-3.904;2022-10-31T17:45:25;17.00;95.80
51007;DHT22;37034;47.886;-3.904;2022-10-31T17:47:52;16.80;96.10
51007;DHT22;37034;47.886;-3.904;2022-10-31T17:50:22;16.80;95.80
51007;DHT22;37034;47.886;-3.904;2022-10-31T17:52:49;16.70;95.50
51007;DHT22;37034;47.886;-3.904;2022-10-31T17:55:15;16.60;95.60
51007;DHT22;37034;47.886;-3.904;2022-10-31T17:57:41;16.50;95.80
51007;DHT22;37034;47.886;-3.904;2022-10-31T18:00:11;16.30;95.70
51007;DHT22;37034;47.886;-3.904;2022-10-31T18:02:38;16.30;95.70
51007;DHT22;37034;47.886;-3.904;2022-10-31T18:05:04;16.30;95.60
51007;DHT22;37034;47.886;-3.904;2022-10-31T18:07:33;16.20;95.10
51007;DHT22;37034;47.886;-3.904;2022-10-31T18:09:59;16.10;95.40
51007;DHT22;37034;47.886;-3.904;2022-10-31T18:12:25;16.20;94.70